Nearby METAR Reports

 

KSFB - Sanford/Orlando, Florida, USA
Distance from station: E 8mi, 12km
Mise à jour: Sat 06/23/18 12:53pm EDT
nuageux
nuageux
 Wind from ONO
Vent: ONO 9 mph , 15 km/h
Température: 90°F , 32°C
Heat Index: 101°F , 38°C
Point de rosée: 75°F , 24°C
Humidité: 63%
Baromètre: 30.01 inHg , 1016.3 hPa
Clouds: nuageux
Visibility: 10 miles , 16 km
Cloud details: partiellement nuageux 4100 ft
nuageux 4700 ft
nuageux 7000 ft
2018/06/23 16:53 KSFB 231653Z 30008KT 10SM SCT041 BKN047 BKN070 32/24 A3001 RMK AO2 LTG DSNT SW SLP160 T03220239
KORL - Orlando, Florida, USA
Distance from station: S 15mi, 24km
Mise à jour: Sat 06/23/18 1:10pm EDT
Few Clouds
Few Clouds
 Wind from NO
Vent: NO 12 mph , 19 km/h
Température: 91°F , 33°C
Heat Index: 102°F , 39°C
Point de rosée: 75°F , 24°C
Humidité: 59%
Baromètre: 30.01 inHg , 1016.3 hPa
Clouds: Few Clouds
Visibility: 10 miles , 16 km
Cloud details: Few Clouds 3800 ft
Few Clouds 6500 ft
2018/06/23 17:10 KORL 231710Z 31010KT 10SM FEW038 FEW065 33/24 A3001 RMK AO2 T03280239
 
KDED - Deland, Florida, USA
Distance from station: N 21mi, 34km
Mise à jour: Sat 06/23/18 1:15pm EDT
partiellement nuageux
partiellement nuageux
 Wind from OSO
Vent: OSO 8 mph , 13 km/h
Température: 91°F , 33°C
Heat Index: 98°F , 37°C
Point de rosée: 72°F , 22°C
Humidité: 52%
Baromètre: 30.01 inHg , 1016.3 hPa
Clouds: partiellement nuageux
Visibility: 10 miles , 16 km
Cloud details: partiellement nuageux 4200 ft
2018/06/23 17:15 KDED 231715Z AUTO 24007KT 10SM SCT042 33/22 A3001 RMK AO2
KMCO - Orlando, Florida, USA
Distance from station: S 24mi, 39km
Mise à jour: Sat 06/23/18 12:53pm EDT
nuageux
nuageux
 Wind from NNO
Vent: NNO 6 mph , 9 km/h
Température: 90°F , 32°C
Heat Index: 101°F , 38°C
Point de rosée: 75°F , 24°C
Humidité: 63%
Baromètre: 30.01 inHg , 1016.3 hPa
Clouds: nuageux
Visibility: 10 miles , 16 km
Cloud details: partiellement nuageux 3800 ft
nuageux 25000 ft
2018/06/23 16:53 KMCO 231653Z 33005KT 10SM SCT038 BKN250 32/24 A3001 RMK AO2 LTG DSNT W SLP161 CB DSNT SE-S AND W T03170239
 
KLEE - Leesburg, Florida, USA
Distance from station: O 29mi, 47km
Mise à jour: Sat 06/23/18 12:53pm EDT
clair
clair
 Wind from O
Vent: O 5 mph , 7 km/h
Température: 90°F , 32°C
Heat Index: 99°F , 37°C
Point de rosée: 73°F , 23°C
Humidité: 59%
Baromètre: 30.02 inHg , 1016.6 hPa
Clouds: clair
Visibility: 10 miles , 16 km
2018/06/23 16:53 KLEE 231653Z 27004KT 10SM CLR 32/23 A3002 RMK AO2 LTG DSNT SE SLP166 T03220228
KEVB - New Smyrna Beach, Florida, USA
Distance from station: NE 31mi, 49km
Mise à jour: Sat 06/23/18 12:47pm EDT
Few Clouds
Few Clouds
 Wind from ONO
Vent: ONO 9 mph , 15 km/h
Température: 91°F , 33°C
Heat Index: 100°F , 38°C
Point de rosée: 73°F , 23°C
Humidité: 56%
Baromètre: 30.02 inHg , 1016.6 hPa
Clouds: Few Clouds
Visibility: 10 miles , 16 km
Cloud details: Few Clouds 6000 ft
2018/06/23 16:47 KEVB 231647Z 30008KT 10SM FEW060 33/23 A3002
 
KDAB - Daytona Beach, Florida, USA
Distance from station: NNE 33mi, 53km
Mise à jour: Sat 06/23/18 12:53pm EDT
partiellement nuageux
partiellement nuageux
 Wind from O
Vent: O 9 mph , 15 km/h
Température: 88°F , 31°C
Heat Index: 98°F , 37°C
Point de rosée: 75°F , 24°C
Humidité: 66%
Baromètre: 30.01 inHg , 1016.3 hPa
Clouds: partiellement nuageux
Visibility: 10 miles , 16 km
Cloud details: partiellement nuageux 3700 ft
partiellement nuageux 5000 ft
2018/06/23 16:53 KDAB 231653Z 27008KT 230V310 10SM SCT037 SCT050 31/24 A3001 RMK AO2 SLP162 CB DSNT SE TCU DSNT SW W T03110239
KISM - Kissimmee/Orland, Florida, USA
Distance from station: S 34mi, 55km
Mise à jour: Sat 06/23/18 1:05pm EDT
Pluie, nuageux
Pluie, nuageux
 Wind from ONO
Vent: ONO 14 mph , 22 km/h
Température: 82°F , 28°C
Heat Index: 89°F , 32°C
Point de rosée: 75°F , 24°C
Humidité: 79%
Baromètre: 30.03 inHg , 1016.9 hPa
Résumé: Pluie
Clouds: nuageux
Visibility: 8 miles , 13 km
Cloud details: Few Clouds 1400 ft
partiellement nuageux 3900 ft
nuageux 6000 ft
2018/06/23 17:05 KISM 231705Z 30012KT 8SM RA FEW014 SCT039 BKN060 28/24 A3003 RMK AO2 TSE1659RAB00 P0000
 
KTIX - Titusville, Florida, USA
Distance from station: ESE 38mi, 61km
Mise à jour: Sat 06/23/18 12:47pm EDT
partiellement nuageux
partiellement nuageux
 Wind from ONO
Vent: ONO 8 mph , 13 km/h
Baromètre: 30.02 inHg , 1016.6 hPa
Clouds: partiellement nuageux
Visibility: 7 miles , 11 km
Cloud details: partiellement nuageux 3800 ft
2018/06/23 16:47 KTIX 231647Z 29007KT 7SM SCT038 A3002
KOMN - Ormond Beach Vor, Florida, USA
Distance from station: NNE 39mi, 63km
Mise à jour: Sat 06/23/18 12:47pm EDT
partiellement nuageux
partiellement nuageux
 Wind from O
Vent: O 12 mph , 19 km/h, Rafale: 17 mph , 28 km/h
Température: 90°F , 32°C
Heat Index: 97°F , 36°C
Point de rosée: 72°F , 22°C
Humidité: 55%
Baromètre: 30.01 inHg , 1016.3 hPa
Clouds: partiellement nuageux
Visibility: 7 miles , 11 km
Cloud details: partiellement nuageux 3000 ft
2018/06/23 16:47 KOMN 231647Z 27010G15KT 7SM SCT030 32/22 A3001
 
KTTS - Nasa Shuttle Fcl, Florida, USA
Distance from station: ESE 39mi, 63km
Mise à jour: Sat 06/23/18 12:56pm EDT
partiellement nuageux
partiellement nuageux
 Wind from NNO
Vent: NNO 7 mph , 11 km/h
Température: 90°F , 32°C
Heat Index: 107°F , 42°C
Point de rosée: 79°F , 26°C
Humidité: 71%
Baromètre: 30.01 inHg , 1016.3 hPa
Clouds: partiellement nuageux
Visibility: 10 miles , 16 km
Cloud details: Few Clouds 5000 ft
Few Clouds 13000 ft
Few Clouds 16000 ft
partiellement nuageux 19000 ft
2018/06/23 16:56 KTTS 231656Z AUTO 33006KT 10SM FEW050 FEW130 FEW160 SCT190 32/26 A3001 RMK AO2 SLP167 T03180261 $
KVVG - The Villages, Florida, USA
Distance from station: ONO 40mi, 64km
Mise à jour: Wed 02/14/18 2:10pm EST
NOT Current

 Wind from calm
Vent: calme
Température: 73°F , 23°C
Point de rosée: 66°F , 19°C
Humidité: 78%
Baromètre: 30.29 inHg , 1025.7 hPa
Visibility: 10 miles , 16 km
2018/02/14 19:10 KVVG 141910Z AUTO 00000KT 10SM 23/19 A3029 RMK A01
 
KXMR - Cape Canaveral, Florida, USA
Distance from station: ESE 51mi, 83km
Mise à jour: Sat 06/23/18 12:56pm EDT
nuageux
nuageux
 Wind from SE
Vent: SE 8 mph , 13 km/h
Température: 88°F , 31°C
Heat Index: 100°F , 38°C
Point de rosée: 77°F , 25°C
Humidité: 70%
Baromètre: 30.00 inHg , 1015.9 hPa
Clouds: nuageux
Visibility: 10 miles , 16 km
Cloud details: Few Clouds 3200 ft
Few Clouds 5500 ft
partiellement nuageux 10000 ft
partiellement nuageux 14000 ft
partiellement nuageux 17000 ft
nuageux 20000 ft
2018/06/23 16:56 KXMR 231656Z AUTO 14007KT 10SM FEW032 FEW055 SCT100 SCT140 SCT170 BKN200 31/25 A3000 RMK AO2 SLP162 T03070250 $
KGIF - Winter Haven, Florida, USA
Distance from station: SSO 55mi, 88km
Mise à jour: Sat 06/23/18 12:53pm EDT
partiellement nuageux
partiellement nuageux
 Wind from ONO
Vent: ONO 8 mph , 13 km/h
Température: 90°F , 32°C
Heat Index: 99°F , 37°C
Point de rosée: 73°F , 23°C
Humidité: 59%
Baromètre: 30.03 inHg , 1016.9 hPa
Clouds: partiellement nuageux
Visibility: 10 miles , 16 km
Cloud details: Few Clouds 5500 ft
partiellement nuageux 7500 ft
2018/06/23 16:53 KGIF 231653Z AUTO 29007KT 10SM FEW055 SCT075 32/23 A3003 RMK AO2 LTG DSNT NE SLP166 T03220233
 
KCOF - Patrick Afb/Coco, Florida, USA
Distance from station: SE 58mi, 94km
Mise à jour: Sat 06/23/18 12:56pm EDT
partiellement nuageux
partiellement nuageux
 Wind from SE
Vent: SE 8 mph , 13 km/h
Température: 86°F , 30°C
Heat Index: 99°F , 37°C
Point de rosée: 79°F , 26°C
Humidité: 79%
Baromètre: 30.01 inHg , 1016.3 hPa
Clouds: partiellement nuageux
Visibility: 10 miles , 16 km
Cloud details: Few Clouds 2200 ft
partiellement nuageux 3700 ft
2018/06/23 16:56 KCOF 231656Z AUTO 14007KT 10SM FEW022 SCT037 30/26 A3001 RMK AO2 LTG DSNT SW RAB04E20DZB20E25 SLP167 P0001 T02980255 $
KINF - Inverness, Florida, USA
Distance from station: O 59mi, 95km
Mise à jour: Sat 06/23/18 1:15pm EDT
partiellement nuageux
partiellement nuageux
 Wind from ONO
Vent: ONO 5 mph , 7 km/h
Température: 90°F , 32°C
Heat Index: 101°F , 38°C
Point de rosée: 75°F , 24°C
Humidité: 63%
Baromètre: 30.02 inHg , 1016.6 hPa
Clouds: partiellement nuageux
Visibility: 10 miles , 16 km
Cloud details: partiellement nuageux 3800 ft
2018/06/23 17:15 KINF 231715Z AUTO 30004KT 10SM SCT038 32/24 A3002 RMK AO2 LTG DSNT W
 
KOCF - Ocala Muni, Florida, USA
Distance from station: ONO 60mi, 96km
Mise à jour: Sat 06/23/18 12:51pm EDT
nuageux
nuageux
 Wind from OSO
Vent: OSO 7 mph , 11 km/h
Température: 90°F , 32°C
Heat Index: 101°F , 38°C
Point de rosée: 75°F , 24°C
Humidité: 63%
Baromètre: 30.02 inHg , 1016.6 hPa
Clouds: nuageux
Visibility: 10 miles , 16 km
Cloud details: nuageux 3700 ft
2018/06/23 16:51 KOCF 231651Z 25006KT 10SM BKN037 32/24 A3002 RMK AO2 SLP166 T03170244 $
KZPH - Zephyrhills, Florida, USA
Distance from station: SO 61mi, 99km
Mise à jour: Sat 06/23/18 1:35pm EDT
partiellement nuageux
partiellement nuageux
 Wind from ONO
Vent: ONO 9 mph , 15 km/h
Température: 91°F , 33°C
Heat Index: 100°F , 38°C
Point de rosée: 73°F , 23°C
Humidité: 56%
Baromètre: 30.03 inHg , 1016.9 hPa
Clouds: partiellement nuageux
Visibility: 10 miles , 16 km
Cloud details: partiellement nuageux 3800 ft
partiellement nuageux 5500 ft
partiellement nuageux 7000 ft
2018/06/23 17:35 KZPH 231735Z AUTO 29008KT 10SM SCT038 SCT055 SCT070 33/23 A3003 RMK AO2 T03280233
 
KMLB - Melbourne, Florida, USA
Distance from station: SE 62mi, 100km
Mise à jour: Sat 06/23/18 1:13pm EDT
Nearby thunderstorm, nuageux
Nearby thunderstorm, nuageux
 Wind from ENE
Vent: ENE 8 mph , 13 km/h
Température: 88°F , 31°C
Heat Index: 100°F , 38°C
Point de rosée: 77°F , 25°C
Humidité: 70%
Baromètre: 30.01 inHg , 1016.3 hPa
Résumé: Nearby Thunderstorm
Clouds: nuageux
Visibility: 10 miles , 16 km
Cloud details: partiellement nuageux 3500 ft
nuageux 4200 ft
nuageux 5500 ft
2018/06/23 17:13 KMLB 231713Z 07007KT 10SM VCTS SCT035 BKN042 BKN055 31/25 A3001 RMK AO2 LTG DSNT SW T03060250
KBOW - Bartow Municipal, Florida, USA
Distance from station: SSO 63mi, 102km
Mise à jour: Sat 06/23/18 12:55pm EDT
Few Clouds
Few Clouds
 Wind from ONO
Vent: ONO 10 mph , 17 km/h
Température: 90°F , 32°C
Heat Index: 97°F , 36°C
Point de rosée: 72°F , 22°C
Humidité: 55%
Baromètre: 30.02 inHg , 1016.6 hPa
Clouds: Few Clouds
Visibility: 10 miles , 16 km
Cloud details: Few Clouds 4000 ft
2018/06/23 16:55 KBOW 231655Z 30009KT 10SM FEW040 32/22 A3002